sensor_id;sensor_type;location;lat;lon;timestamp;pressure;altitude;pressure_sealevel;temperature;humidity
37648;BME280;23490;53.656;10.076;2023-01-08T00:00:45;99356.06;;;-145.95;91.92
37648;BME280;23490;53.656;10.076;2023-01-08T00:03:11;99380.84;;;-145.95;92.05
37648;BME280;23490;53.656;10.076;2023-01-08T00:05:37;99347.78;;;-145.95;92.26
37648;BME280;23490;53.656;10.076;2023-01-08T00:08:03;99384.97;;;-145.95;92.78
37648;BME280;23490;53.656;10.076;2023-01-08T00:10:29;99366.38;;;-145.95;92.68
37648;BME280;23490;53.656;10.076;2023-01-08T00:12:54;99360.19;;;-145.95;92.85
37648;BME280;23490;53.656;10.076;2023-01-08T00:15:20;99380.84;;;-145.95;93.02
37648;BME280;23490;53.656;10.076;2023-01-08T00:17:45;99327.13;;;-145.95;92.71
37648;BME280;23490;53.656;10.076;2023-01-08T00:20:11;99384.97;;;-145.95;92.96
37648;BME280;23490;53.656;10.076;2023-01-08T00:22:36;99376.69;;;-145.95;92.76
37648;BME280;23490;53.656;10.076;2023-01-08T00:25:03;99393.22;;;-145.95;92.90
37648;BME280;23490;53.656;10.076;2023-01-08T00:27:28;99339.53;;;-145.95;93.05
37648;BME280;23490;53.656;10.076;2023-01-08T00:29:54;99372.56;;;-145.95;93.05
37648;BME280;23490;53.656;10.076;2023-01-08T00:32:19;99364.31;;;-145.95;92.95
37648;BME280;23490;53.656;10.076;2023-01-08T00:34:44;99384.97;;;-145.95;93.22
37648;BME280;23490;53.656;10.076;2023-01-08T00:37:09;99389.09;;;-145.95;93.07
37648;BME280;23490;53.656;10.076;2023-01-08T00:39:35;99376.69;;;-145.95;93.25
37648;BME280;23490;53.656;10.076;2023-01-08T00:42:00;99356.06;;;-145.95;93.17
37648;BME280;23490;53.656;10.076;2023-01-08T00:44:25;99374.63;;;-145.95;93.49
37648;BME280;23490;53.656;10.076;2023-01-08T00:46:51;99370.50;;;-145.95;93.02
37648;BME280;23490;53.656;10.076;2023-01-08T00:49:16;99368.44;;;-145.95;93.32
37648;BME280;23490;53.656;10.076;2023-01-08T00:51:41;99389.09;;;-145.95;92.94
37648;BME280;23490;53.656;10.076;2023-01-08T00:54:09;99339.53;;;-145.95;93.33
37648;BME280;23490;53.656;10.076;2023-01-08T00:56:34;99368.44;;;-145.95;93.02
37648;BME280;23490;53.656;10.076;2023-01-08T00:59:00;99397.34;;;-145.95;93.33
37648;BME280;23490;53.656;10.076;2023-01-08T01:01:25;99347.78;;;-145.95;93.09
37648;BME280;23490;53.656;10.076;2023-01-08T01:03:50;99345.72;;;-145.95;93.20
37648;BME280;23490;53.656;10.076;2023-01-08T01:06:16;99354.00;;;-145.95;93.26
37648;BME280;23490;53.656;10.076;2023-01-08T01:08:41;99374.63;;;-145.95;93.67
37648;BME280;23490;53.656;10.076;2023-01-08T01:11:12;99393.22;;;-145.95;93.55
37648;BME280;23490;53.656;10.076;2023-01-08T01:13:41;99376.69;;;-145.95;93.83
37648;BME280;23490;53.656;10.076;2023-01-08T01:16:07;99368.44;;;-145.95;93.53
37648;BME280;23490;53.656;10.076;2023-01-08T01:18:33;99378.78;;;-145.95;93.60
37648;BME280;23490;53.656;10.076;2023-01-08T01:20:58;99351.91;;;-145.95;92.75
37648;BME280;23490;53.656;10.076;2023-01-08T01:23:23;99339.53;;;-145.95;92.64
37648;BME280;23490;53.656;10.076;2023-01-08T01:25:48;99347.78;;;-145.95;92.60
37648;BME280;23490;53.656;10.076;2023-01-08T01:28:14;99335.41;;;-145.95;92.95
37648;BME280;23490;53.656;10.076;2023-01-08T01:30:40;99316.81;;;-145.95;92.71
37648;BME280;23490;53.656;10.076;2023-01-08T01:33:05;99283.78;;;-145.95;92.88
37648;BME280;23490;53.656;10.076;2023-01-08T01:35:31;99384.97;;;-145.95;93.31
37648;BME280;23490;53.656;10.076;2023-01-08T01:37:56;99347.78;;;-145.95;92.18
37648;BME280;23490;53.656;10.076;2023-01-08T01:40:21;99331.28;;;-145.95;92.21
37648;BME280;23490;53.656;10.076;2023-01-08T01:42:47;99331.28;;;-145.95;92.11
37648;BME280;23490;53.656;10.076;2023-01-08T01:47:40;99335.41;;;-145.95;92.75
37648;BME280;23490;53.656;10.076;2023-01-08T01:50:12;99345.72;;;-145.95;92.46
37648;BME280;23490;53.656;10.076;2023-01-08T01:52:42;99298.22;;;-145.95;92.46
37648;BME280;23490;53.656;10.076;2023-01-08T01:55:10;99335.41;;;-145.95;93.00
37648;BME280;23490;53.656;10.076;2023-01-08T01:57:37;99343.66;;;-145.95;92.98
37648;BME280;23490;53.656;10.076;2023-01-08T02:00:06;99277.56;;;-145.95;92.54
37648;BME280;23490;53.656;10.076;2023-01-08T02:02:32;99339.53;;;-145.95;92.40
37648;BME280;23490;53.656;10.076;2023-01-08T02:04:59;99298.22;;;-145.95;92.51
37648;BME280;23490;53.656;10.076;2023-01-08T02:07:41;99318.88;;;-145.95;91.82
37648;BME280;23490;53.656;10.076;2023-01-08T02:10:19;99285.84;;;-145.95;91.83
37648;BME280;23490;53.656;10.076;2023-01-08T02:12:51;99265.19;;;-145.95;91.75
37648;BME280;23490;53.656;10.076;2023-01-08T02:15:25;99339.53;;;-145.95;91.29
37648;BME280;23490;53.656;10.076;2023-01-08T02:18:04;99302.34;;;-145.95;91.04
37648;BME280;23490;53.656;10.076;2023-01-08T02:20:49;99281.72;;;-145.95;91.42
37648;BME280;23490;53.656;10.076;2023-01-08T02:26:15;99327.13;;;-145.95;92.22
37648;BME280;23490;53.656;10.076;2023-01-08T02:28:46;99306.50;;;-145.95;92.29
37648;BME280;23490;53.656;10.076;2023-01-08T02:31:13;99314.75;;;-145.95;92.41
37648;BME280;23490;53.656;10.076;2023-01-08T02:33:40;99281.72;;;-145.95;91.85
37648;BME280;23490;53.656;10.076;2023-01-08T02:36:31;99267.25;;;-145.95;92.26
37648;BME280;23490;53.656;10.076;2023-01-08T02:41:31;99298.22;;;-145.95;93.21
37648;BME280;23490;53.656;10.076;2023-01-08T02:43:58;99327.13;;;-145.95;92.96
37648;BME280;23490;53.656;10.076;2023-01-08T02:46:26;99316.81;;;-145.95;93.15
37648;BME280;23490;53.656;10.076;2023-01-08T02:49:00;99298.22;;;-145.95;93.18
37648;BME280;23490;53.656;10.076;2023-01-08T02:51:43;99308.56;;;-145.95;93.94
37648;BME280;23490;53.656;10.076;2023-01-08T02:54:16;99285.84;;;-145.95;94.09
37648;BME280;23490;53.656;10.076;2023-01-08T02:56:45;99298.22;;;-145.95;94.54
37648;BME280;23490;53.656;10.076;2023-01-08T02:59:14;99306.50;;;-145.95;94.50
37648;BME280;23490;53.656;10.076;2023-01-08T03:01:40;99318.88;;;-145.95;94.56
37648;BME280;23490;53.656;10.076;2023-01-08T03:04:13;99368.44;;;-145.95;95.52
37648;BME280;23490;53.656;10.076;2023-01-08T03:06:38;99327.13;;;-145.95;94.26
37648;BME280;23490;53.656;10.076;2023-01-08T03:09:04;99343.66;;;-145.95;94.96
37648;BME280;23490;53.656;10.076;2023-01-08T03:12:01;99310.63;;;-145.95;94.53
37648;BME280;23490;53.656;10.076;2023-01-08T03:14:40;99314.75;;;-145.95;93.97
37648;BME280;23490;53.656;10.076;2023-01-08T03:17:19;99310.63;;;-145.95;95.04
37648;BME280;23490;53.656;10.076;2023-01-08T03:19:51;99318.88;;;-145.95;94.45
37648;BME280;23490;53.656;10.076;2023-01-08T03:22:18;99306.50;;;-145.95;94.37
37648;BME280;23490;53.656;10.076;2023-01-08T03:24:46;99273.44;;;-145.95;94.81
37648;BME280;23490;53.656;10.076;2023-01-08T03:27:17;99298.22;;;-145.95;94.85
37648;BME280;23490;53.656;10.076;2023-01-08T03:29:48;99335.41;;;-145.95;94.76
37648;BME280;23490;53.656;10.076;2023-01-08T03:32:15;99294.09;;;-145.95;95.74
37648;BME280;23490;53.656;10.076;2023-01-08T03:34:45;99341.59;;;-145.95;95.32
37648;BME280;23490;53.656;10.076;2023-01-08T03:37:12;99283.78;;;-145.95;94.88
37648;BME280;23490;53.656;10.076;2023-01-08T03:39:59;99351.91;;;-145.95;94.67
37648;BME280;23490;53.656;10.076;2023-01-08T03:42:25;99285.84;;;-145.95;95.58
37648;BME280;23490;53.656;10.076;2023-01-08T03:44:53;99331.28;;;-145.95;95.51
37648;BME280;23490;53.656;10.076;2023-01-08T03:47:19;99347.78;;;-145.95;95.56
37648;BME280;23490;53.656;10.076;2023-01-08T03:49:46;99329.19;;;-145.95;95.76
37648;BME280;23490;53.656;10.076;2023-01-08T03:52:24;99335.41;;;-145.95;96.03
37648;BME280;23490;53.656;10.076;2023-01-08T03:54:50;99360.19;;;-145.95;96.14
37648;BME280;23490;53.656;10.076;2023-01-08T03:57:15;99302.34;;;-145.95;96.28
37648;BME280;23490;53.656;10.076;2023-01-08T03:59:40;99320.94;;;-145.95;95.87
37648;BME280;23490;53.656;10.076;2023-01-08T04:02:06;99318.88;;;-145.95;95.71
37648;BME280;23490;53.656;10.076;2023-01-08T04:04:31;99323.00;;;-145.95;95.74
37648;BME280;23490;53.656;10.076;2023-01-08T04:06:56;99347.78;;;-145.95;96.13
37648;BME280;23490;53.656;10.076;2023-01-08T04:09:22;99327.13;;;-145.95;96.13
37648;BME280;23490;53.656;10.076;2023-01-08T04:11:47;99327.13;;;-145.95;96.19
37648;BME280;23490;53.656;10.076;2023-01-08T04:14:12;99318.88;;;-145.95;96.06
37648;BME280;23490;53.656;10.076;2023-01-08T04:16:37;99318.88;;;-145.95;95.92
37648;BME280;23490;53.656;10.076;2023-01-08T04:19:03;99327.13;;;-145.95;96.01
37648;BME280;23490;53.656;10.076;2023-01-08T04:21:28;99335.41;;;-145.95;95.83
37648;BME280;23490;53.656;10.076;2023-01-08T04:23:54;99329.19;;;-145.95;95.96
37648;BME280;23490;53.656;10.076;2023-01-08T04:26:19;99323.00;;;-145.95;95.91
37648;BME280;23490;53.656;10.076;2023-01-08T04:28:45;99323.00;;;-145.95;95.99
37648;BME280;23490;53.656;10.076;2023-01-08T04:31:10;99318.88;;;-145.95;95.74
37648;BME280;23490;53.656;10.076;2023-01-08T04:33:36;99302.34;;;-145.95;95.43
37648;BME280;23490;53.656;10.076;2023-01-08T04:36:02;99285.84;;;-145.95;95.13
37648;BME280;23490;53.656;10.076;2023-01-08T04:38:27;99312.69;;;-145.95;95.24
37648;BME280;23490;53.656;10.076;2023-01-08T04:40:56;99294.09;;;-145.95;95.64
37648;BME280;23490;53.656;10.076;2023-01-08T04:43:23;99310.63;;;-145.95;95.71
37648;BME280;23490;53.656;10.076;2023-01-08T04:45:48;99294.09;;;-145.95;94.97
37648;BME280;23490;53.656;10.076;2023-01-08T04:48:13;99283.78;;;-145.95;94.98
37648;BME280;23490;53.656;10.076;2023-01-08T04:50:39;99298.22;;;-145.95;94.90
37648;BME280;23490;53.656;10.076;2023-01-08T04:53:04;99314.75;;;-145.95;94.30
37648;BME280;23490;53.656;10.076;2023-01-08T04:55:29;99298.22;;;-145.95;94.68
37648;BME280;23490;53.656;10.076;2023-01-08T04:57:54;99261.06;;;-145.95;95.36
37648;BME280;23490;53.656;10.076;2023-01-08T05:00:20;99306.50;;;-145.95;94.91
37648;BME280;23490;53.656;10.076;2023-01-08T05:02:45;99312.69;;;-145.95;95.17
37648;BME280;23490;53.656;10.076;2023-01-08T05:05:10;99298.22;;;-145.95;95.36
37648;BME280;23490;53.656;10.076;2023-01-08T05:07:36;99294.09;;;-145.95;94.94
37648;BME280;23490;53.656;10.076;2023-01-08T05:10:02;99269.31;;;-145.95;94.62
37648;BME280;23490;53.656;10.076;2023-01-08T05:12:27;99298.22;;;-145.95;94.07
37648;BME280;23490;53.656;10.076;2023-01-08T05:14:52;99273.44;;;-145.95;94.39
37648;BME280;23490;53.656;10.076;2023-01-08T05:17:17;99292.03;;;-145.95;94.72
37648;BME280;23490;53.656;10.076;2023-01-08T05:19:43;99294.09;;;-145.95;95.06
37648;BME280;23490;53.656;10.076;2023-01-08T05:22:08;99281.72;;;-145.95;94.74
37648;BME280;23490;53.656;10.076;2023-01-08T05:24:34;99279.63;;;-145.95;95.24
37648;BME280;23490;53.656;10.076;2023-01-08T05:26:59;99277.56;;;-145.95;94.94
37648;BME280;23490;53.656;10.076;2023-01-08T05:29:24;99285.84;;;-145.95;94.97
37648;BME280;23490;53.656;10.076;2023-01-08T05:31:50;99256.94;;;-145.95;94.78
37648;BME280;23490;53.656;10.076;2023-01-08T05:34:15;99277.56;;;-145.95;94.93
37648;BME280;23490;53.656;10.076;2023-01-08T05:36:40;99277.56;;;-145.95;94.66
37648;BME280;23490;53.656;10.076;2023-01-08T05:39:06;99271.38;;;-145.95;95.07
37648;BME280;23490;53.656;10.076;2023-01-08T05:41:31;99277.56;;;-145.95;94.78
37648;BME280;23490;53.656;10.076;2023-01-08T05:43:56;99277.56;;;-145.95;94.78
37648;BME280;23490;53.656;10.076;2023-01-08T05:46:21;99294.09;;;-145.95;95.35
37648;BME280;23490;53.656;10.076;2023-01-08T05:48:47;99267.25;;;-145.95;95.26
37648;BME280;23490;53.656;10.076;2023-01-08T05:51:12;99269.31;;;-145.95;94.92
37648;BME280;23490;53.656;10.076;2023-01-08T05:53:38;99256.94;;;-145.95;95.24
37648;BME280;23490;53.656;10.076;2023-01-08T05:56:07;99289.97;;;-145.95;95.44
37648;BME280;23490;53.656;10.076;2023-01-08T05:58:33;99289.97;;;-145.95;96.31
37648;BME280;23490;53.656;10.076;2023-01-08T06:01:10;99294.09;;;-145.95;95.92
37648;BME280;23490;53.656;10.076;2023-01-08T06:03:36;99277.56;;;-145.95;95.24
37648;BME280;23490;53.656;10.076;2023-01-08T06:06:02;99248.66;;;-145.95;95.85
37648;BME280;23490;53.656;10.076;2023-01-08T06:08:29;99277.56;;;-145.95;95.94
37648;BME280;23490;53.656;10.076;2023-01-08T06:11:06;99269.31;;;-145.95;96.47
37648;BME280;23490;53.656;10.076;2023-01-08T06:13:34;99240.41;;;-145.95;96.19
37648;BME280;23490;53.656;10.076;2023-01-08T06:16:00;99279.63;;;-145.95;96.48
37648;BME280;23490;53.656;10.076;2023-01-08T06:18:26;99261.06;;;-145.95;96.65
37648;BME280;23490;53.656;10.076;2023-01-08T06:20:52;99306.50;;;-145.95;96.47
37648;BME280;23490;53.656;10.076;2023-01-08T06:23:17;99277.56;;;-145.95;96.93
37648;BME280;23490;53.656;10.076;2023-01-08T06:25:43;99277.56;;;-145.95;97.14
37648;BME280;23490;53.656;10.076;2023-01-08T06:28:08;99275.50;;;-145.95;96.44
37648;BME280;23490;53.656;10.076;2023-01-08T06:30:33;99285.84;;;-145.95;96.71
37648;BME280;23490;53.656;10.076;2023-01-08T06:33:00;99327.13;;;-145.95;97.39
37648;BME280;23490;53.656;10.076;2023-01-08T06:35:26;99285.84;;;-145.95;97.50
37648;BME280;23490;53.656;10.076;2023-01-08T06:37:54;99215.63;;;-145.95;97.59
37648;BME280;23490;53.656;10.076;2023-01-08T06:40:19;99314.75;;;-145.95;97.70
37648;BME280;23490;53.656;10.076;2023-01-08T06:42:45;99296.16;;;-145.95;97.39
37648;BME280;23490;53.656;10.076;2023-01-08T06:45:11;99281.72;;;-145.95;97.90
37648;BME280;23490;53.656;10.076;2023-01-08T06:47:36;99318.88;;;-145.95;97.37
37648;BME280;23490;53.656;10.076;2023-01-08T06:50:02;99310.63;;;-145.95;97.43
37648;BME280;23490;53.656;10.076;2023-01-08T06:52:28;99310.63;;;-145.95;97.49
37648;BME280;23490;53.656;10.076;2023-01-08T06:54:53;99302.34;;;-145.95;97.85
37648;BME280;23490;53.656;10.076;2023-01-08T06:57:19;99281.72;;;-145.95;97.90
37648;BME280;23490;53.656;10.076;2023-01-08T06:59:44;99302.34;;;-145.95;98.24
37648;BME280;23490;53.656;10.076;2023-01-08T07:02:13;99310.63;;;-145.95;98.36
37648;BME280;23490;53.656;10.076;2023-01-08T07:04:39;99318.88;;;-145.95;98.09
37648;BME280;23490;53.656;10.076;2023-01-08T07:07:04;99302.34;;;-145.95;98.15
37648;BME280;23490;53.656;10.076;2023-01-08T07:09:30;99298.22;;;-145.95;97.90
37648;BME280;23490;53.656;10.076;2023-01-08T07:11:55;99314.75;;;-145.95;98.50
37648;BME280;23490;53.656;10.076;2023-01-08T07:14:20;99335.41;;;-145.95;98.45
37648;BME280;23490;53.656;10.076;2023-01-08T07:16:46;99339.53;;;-145.95;98.81
37648;BME280;23490;53.656;10.076;2023-01-08T07:19:11;99318.88;;;-145.95;99.30
37648;BME280;23490;53.656;10.076;2023-01-08T07:21:36;99287.91;;;-145.95;99.10
37648;BME280;23490;53.656;10.076;2023-01-08T07:24:02;99310.63;;;-145.95;99.53
37648;BME280;23490;53.656;10.076;2023-01-08T07:26:28;99362.25;;;-145.95;99.69
37648;BME280;23490;53.656;10.076;2023-01-08T07:28:53;99341.59;;;-145.95;100.00
37648;BME280;23490;53.656;10.076;2023-01-08T07:31:18;99335.41;;;-145.95;99.50
37648;BME280;23490;53.656;10.076;2023-01-08T07:33:44;99306.50;;;-145.95;99.57
37648;BME280;23490;53.656;10.076;2023-01-08T07:36:09;99318.88;;;-145.95;99.58
37648;BME280;23490;53.656;10.076;2023-01-08T07:38:34;99314.75;;;-145.95;99.80
37648;BME280;23490;53.656;10.076;2023-01-08T07:41:00;99331.28;;;-145.95;100.00
37648;BME280;23490;53.656;10.076;2023-01-08T07:43:25;99318.88;;;-145.95;100.00
37648;BME280;23490;53.656;10.076;2023-01-08T07:45:50;99298.22;;;-145.95;99.98
37648;BME280;23490;53.656;10.076;2023-01-08T07:48:16;99312.69;;;-145.95;99.95
37648;BME280;23490;53.656;10.076;2023-01-08T07:50:44;99337.47;;;-145.95;99.86
37648;BME280;23490;53.656;10.076;2023-01-08T07:53:11;99298.22;;;-145.95;100.00
37648;BME280;23490;53.656;10.076;2023-01-08T07:55:37;99347.78;;;-145.95;100.00
37648;BME280;23490;53.656;10.076;2023-01-08T07:58:07;99339.53;;;-145.95;99.95
37648;BME280;23490;53.656;10.076;2023-01-08T08:00:33;99356.06;;;-145.95;100.00
37648;BME280;23490;53.656;10.076;2023-01-08T08:03:03;99343.66;;;-145.95;100.00
37648;BME280;23490;53.656;10.076;2023-01-08T08:05:28;99310.63;;;-145.95;100.00
37648;BME280;23490;53.656;10.076;2023-01-08T08:07:54;99343.66;;;-145.95;100.00
37648;BME280;23490;53.656;10.076;2023-01-08T08:10:19;99337.47;;;-145.95;100.00
37648;BME280;23490;53.656;10.076;2023-01-08T08:12:44;99339.53;;;-145.95;100.00
37648;BME280;23490;53.656;10.076;2023-01-08T08:15:10;99314.75;;;-145.95;100.00
37648;BME280;23490;53.656;10.076;2023-01-08T08:17:35;99285.84;;;-145.95;100.00
37648;BME280;23490;53.656;10.076;2023-01-08T08:20:00;99351.91;;;-145.95;100.00
37648;BME280;23490;53.656;10.076;2023-01-08T08:22:26;99349.84;;;-145.95;100.00
37648;BME280;23490;53.656;10.076;2023-01-08T08:24:51;99335.41;;;-145.95;100.00
37648;BME280;23490;53.656;10.076;2023-01-08T08:27:16;99347.78;;;-145.95;100.00
37648;BME280;23490;53.656;10.076;2023-01-08T08:29:42;99376.69;;;-145.95;100.00
37648;BME280;23490;53.656;10.076;2023-01-08T08:32:07;99343.66;;;-145.95;100.00
37648;BME280;23490;53.656;10.076;2023-01-08T08:34:32;99339.53;;;-145.95;100.00
37648;BME280;23490;53.656;10.076;2023-01-08T08:36:58;99339.53;;;-145.95;100.00
37648;BME280;23490;53.656;10.076;2023-01-08T08:39:23;99389.09;;;-145.95;100.00
37648;BME280;23490;53.656;10.076;2023-01-08T08:41:48;99339.53;;;-145.95;100.00
37648;BME280;23490;53.656;10.076;2023-01-08T08:44:14;99368.44;;;-145.95;100.00
37648;BME280;23490;53.656;10.076;2023-01-08T08:46:39;99331.28;;;-145.95;100.00
37648;BME280;23490;53.656;10.076;2023-01-08T08:49:04;99296.16;;;-145.95;100.00
37648;BME280;23490;53.656;10.076;2023-01-08T08:51:30;99382.91;;;-145.95;100.00
37648;BME280;23490;53.656;10.076;2023-01-08T08:53:55;99331.28;;;-145.95;100.00
37648;BME280;23490;53.656;10.076;2023-01-08T08:56:20;99347.78;;;-145.95;100.00
37648;BME280;23490;53.656;10.076;2023-01-08T08:58:46;99273.44;;;-145.95;100.00
37648;BME280;23490;53.656;10.076;2023-01-08T09:01:11;99323.00;;;-145.95;100.00
37648;BME280;23490;53.656;10.076;2023-01-08T09:03:37;99318.88;;;-145.95;100.00
37648;BME280;23490;53.656;10.076;2023-01-08T09:06:02;99281.72;;;-145.95;100.00
37648;BME280;23490;53.656;10.076;2023-01-08T09:08:28;99347.78;;;-145.95;100.00
37648;BME280;23490;53.656;10.076;2023-01-08T09:10:53;99302.34;;;-145.95;100.00
37648;BME280;23490;53.656;10.076;2023-01-08T09:13:19;99314.75;;;-145.95;100.00
37648;BME280;23490;53.656;10.076;2023-01-08T09:15:44;99323.00;;;-145.95;100.00
37648;BME280;23490;53.656;10.076;2023-01-08T09:18:09;99277.56;;;-145.95;100.00
37648;BME280;23490;53.656;10.076;2023-01-08T09:20:35;99289.97;;;-145.95;100.00
37648;BME280;23490;53.656;10.076;2023-01-08T09:23:00;99302.34;;;-145.95;100.00
37648;BME280;23490;53.656;10.076;2023-01-08T09:25:27;99277.56;;;-145.95;100.00
37648;BME280;23490;53.656;10.076;2023-01-08T09:28:05;99269.31;;;-145.95;100.00
37648;BME280;23490;53.656;10.076;2023-01-08T09:30:31;99310.63;;;-145.95;100.00
37648;BME280;23490;53.656;10.076;2023-01-08T09:32:57;99269.31;;;-145.95;100.00
37648;BME280;23490;53.656;10.076;2023-01-08T09:35:23;99263.13;;;-145.95;100.00
37648;BME280;23490;53.656;10.076;2023-01-08T09:37:50;99294.09;;;-145.95;100.00
37648;BME280;23490;53.656;10.076;2023-01-08T09:40:15;99320.94;;;-145.95;100.00
37648;BME280;23490;53.656;10.076;2023-01-08T09:42:41;99265.19;;;-145.95;100.00
37648;BME280;23490;53.656;10.076;2023-01-08T09:45:12;99267.25;;;-145.95;100.00
37648;BME280;23490;53.656;10.076;2023-01-08T09:47:43;99285.84;;;-145.95;100.00
37648;BME280;23490;53.656;10.076;2023-01-08T09:50:11;99306.50;;;-145.95;100.00
37648;BME280;23490;53.656;10.076;2023-01-08T09:52:37;99294.09;;;-145.95;100.00
37648;BME280;23490;53.656;10.076;2023-01-08T09:55:11;99289.97;;;-145.95;100.00
37648;BME280;23490;53.656;10.076;2023-01-08T09:57:36;99289.97;;;-145.95;100.00
37648;BME280;23490;53.656;10.076;2023-01-08T10:00:02;99261.06;;;-145.95;100.00
37648;BME280;23490;53.656;10.076;2023-01-08T10:02:36;99261.06;;;-145.95;100.00
37648;BME280;23490;53.656;10.076;2023-01-08T10:05:11;99275.50;;;-145.95;100.00
37648;BME280;23490;53.656;10.076;2023-01-08T10:07:38;99265.19;;;-145.95;100.00
37648;BME280;23490;53.656;10.076;2023-01-08T10:10:04;99273.44;;;-145.95;100.00
37648;BME280;23490;53.656;10.076;2023-01-08T10:12:30;99236.28;;;-145.95;100.00
37648;BME280;23490;53.656;10.076;2023-01-08T10:15:05;99273.44;;;-145.95;100.00
37648;BME280;23490;53.656;10.076;2023-01-08T10:17:48;99232.16;;;-145.95;100.00
37648;BME280;23490;53.656;10.076;2023-01-08T10:20:18;99244.53;;;-145.95;100.00
37648;BME280;23490;53.656;10.076;2023-01-08T10:22:45;99252.78;;;-145.95;100.00
37648;BME280;23490;53.656;10.076;2023-01-08T10:25:17;99238.34;;;-145.95;100.00
37648;BME280;23490;53.656;10.076;2023-01-08T10:27:47;99244.53;;;-145.95;100.00
37648;BME280;23490;53.656;10.076;2023-01-08T10:30:15;99240.41;;;-145.95;100.00
37648;BME280;23490;53.656;10.076;2023-01-08T10:32:46;99225.94;;;-145.95;100.00
37648;BME280;23490;53.656;10.076;2023-01-08T10:35:16;99178.44;;;-145.95;100.00
37648;BME280;23490;53.656;10.076;2023-01-08T10:37:43;99174.31;;;-145.95;100.00
37648;BME280;23490;53.656;10.076;2023-01-08T10:40:37;99174.31;;;-145.95;100.00
37648;BME280;23490;53.656;10.076;2023-01-08T10:43:15;99215.63;;;-145.95;100.00
37648;BME280;23490;53.656;10.076;2023-01-08T10:45:43;99205.28;;;-145.95;100.00
37648;BME280;23490;53.656;10.076;2023-01-08T10:48:17;99219.75;;;-145.95;100.00
37648;BME280;23490;53.656;10.076;2023-01-08T10:50:43;99194.97;;;-145.95;100.00
37648;BME280;23490;53.656;10.076;2023-01-08T10:53:23;99178.44;;;-145.95;100.00
37648;BME280;23490;53.656;10.076;2023-01-08T10:55:57;99225.94;;;-145.95;100.00
37648;BME280;23490;53.656;10.076;2023-01-08T10:58:23;99219.75;;;-145.95;100.00
37648;BME280;23490;53.656;10.076;2023-01-08T11:00:48;99223.88;;;-145.95;100.00
37648;BME280;23490;53.656;10.076;2023-01-08T11:03:30;99223.88;;;-145.95;100.00
37648;BME280;23490;53.656;10.076;2023-01-08T11:05:56;99211.50;;;-145.95;100.00
37648;BME280;23490;53.656;10.076;2023-01-08T11:08:22;99261.06;;;-145.95;100.00
37648;BME280;23490;53.656;10.076;2023-01-08T11:10:57;99215.63;;;-145.95;100.00
37648;BME280;23490;53.656;10.076;2023-01-08T11:13:23;99265.19;;;-145.95;100.00
37648;BME280;23490;53.656;10.076;2023-01-08T11:16:03;99211.50;;;-145.95;100.00
37648;BME280;23490;53.656;10.076;2023-01-08T11:18:29;99215.63;;;-145.95;100.00
37648;BME280;23490;53.656;10.076;2023-01-08T11:21:09;99188.78;;;-145.95;100.00
37648;BME280;23490;53.656;10.076;2023-01-08T11:23:35;99256.94;;;-145.95;100.00
37648;BME280;23490;53.656;10.076;2023-01-08T11:26:07;99221.81;;;-145.95;100.00
37648;BME280;23490;53.656;10.076;2023-01-08T11:28:50;99244.53;;;-145.95;100.00
37648;BME280;23490;53.656;10.076;2023-01-08T11:31:43;99236.28;;;-145.95;100.00
37648;BME280;23490;53.656;10.076;2023-01-08T11:34:25;99213.56;;;-145.95;100.00
37648;BME280;23490;53.656;10.076;2023-01-08T11:36:57;99190.84;;;-145.95;100.00
37648;BME280;23490;53.656;10.076;2023-01-08T11:39:24;99221.81;;;-145.95;100.00
37648;BME280;23490;53.656;10.076;2023-01-08T11:42:01;99095.84;;;-145.95;100.00
37648;BME280;23490;53.656;10.076;2023-01-08T11:44:51;98976.09;;;-145.95;99.80
37648;BME280;23490;53.656;10.076;2023-01-08T11:47:43;98856.31;;;-145.95;95.78
37648;BME280;23490;53.656;10.076;2023-01-08T11:50:40;98804.69;;;-145.95;91.62
37648;BME280;23490;53.656;10.076;2023-01-08T11:53:26;98810.88;;;-145.95;90.64
37648;BME280;23490;53.656;10.076;2023-01-08T11:58:50;98823.28;;;-145.95;86.51
37648;BME280;23490;53.656;10.076;2023-01-08T12:01:59;98955.44;;;-145.95;90.69
37648;BME280;23490;53.656;10.076;2023-01-08T12:04:36;99052.47;;;-145.95;90.34
37648;BME280;23490;53.656;10.076;2023-01-08T12:07:30;98998.78;;;-145.95;89.71
37648;BME280;23490;53.656;10.076;2023-01-08T12:10:00;99091.72;;;-145.95;92.07
37648;BME280;23490;53.656;10.076;2023-01-08T12:20:44;99087.59;;;-145.95;92.83
37648;BME280;23490;53.656;10.076;2023-01-08T12:28:57;99079.34;;;-145.95;92.52
37648;BME280;23490;53.656;10.076;2023-01-08T12:34:35;99097.91;;;-145.95;89.89
37648;BME280;23490;53.656;10.076;2023-01-08T12:37:04;99110.31;;;-145.95;87.35
37648;BME280;23490;53.656;10.076;2023-01-08T12:39:42;99091.72;;;-145.95;86.92
37648;BME280;23490;53.656;10.076;2023-01-08T12:42:13;99058.69;;;-145.95;86.52
37648;BME280;23490;53.656;10.076;2023-01-08T12:44:43;99124.75;;;-145.95;86.07
37648;BME280;23490;53.656;10.076;2023-01-08T12:47:13;99075.19;;;-145.95;83.29
37648;BME280;23490;53.656;10.076;2023-01-08T12:49:50;99112.38;;;-145.95;84.17
37648;BME280;23490;53.656;10.076;2023-01-08T12:52:25;99108.25;;;-145.95;84.89
37648;BME280;23490;53.656;10.076;2023-01-08T12:55:29;99137.16;;;-145.95;83.74
37648;BME280;23490;53.656;10.076;2023-01-08T12:58:14;99108.25;;;-145.95;83.89
37648;BME280;23490;53.656;10.076;2023-01-08T13:03:31;99116.50;;;-145.95;86.05
37648;BME280;23490;53.656;10.076;2023-01-08T13:06:06;99149.53;;;-145.95;86.70